createdAt,value
2018-03-26T00:04:00.672Z,14.57
2018-03-26T00:14:19.271Z,41.17
2018-03-26T00:24:38.735Z,32.10
2018-03-26T00:34:47.564Z,40.93
2018-03-26T00:45:01.604Z,33.97
2018-03-26T00:55:25.157Z,39.60
2018-03-26T01:05:35.964Z,34.47
2018-03-26T01:15:50.142Z,36.90
2018-03-26T01:26:11.185Z,42.70
2018-03-26T01:36:22.385Z,30.93
2018-03-26T01:46:38.521Z,34.63
2018-03-26T01:56:58.104Z,30.53
2018-03-26T02:07:13.256Z,29.87
2018-03-26T02:17:28.373Z,35.37
2018-03-26T02:27:43.687Z,45.73
2018-03-26T02:38:01.665Z,44.93
2018-03-26T02:48:16.674Z,47.67
2018-03-26T02:58:27.782Z,42.33
2018-03-26T03:08:42.855Z,38.60
2018-03-26T03:18:52.227Z,36.47
2018-03-26T03:29:16.166Z,37.03
2018-03-26T03:39:30.210Z,35.03
2018-03-26T03:49:42.507Z,34.07
2018-03-26T03:59:56.530Z,31.90
2018-03-26T04:10:09.501Z,28.90
2018-03-26T04:20:25.232Z,30.23
2018-03-26T04:30:38.258Z,25.57
2018-03-26T04:40:53.333Z,27.17
2018-03-26T04:51:04.114Z,24.43
2018-03-26T05:01:13.738Z,26.23
2018-03-26T05:11:25.728Z,24.33
2018-03-26T05:21:40.393Z,24.03
2018-03-26T05:31:58.184Z,22.50
2018-03-26T05:42:10.036Z,21.63
2018-03-26T05:52:26.244Z,22.10
2018-03-26T06:02:42.141Z,22.07
2018-03-26T06:12:59.235Z,22.30
2018-03-26T06:33:29.124Z,19.47
2018-03-26T06:43:49.694Z,19.70
2018-03-26T06:54:03.629Z,18.53
2018-03-26T07:04:18.517Z,17.53
2018-03-26T07:14:31.178Z,18.90
2018-03-26T07:24:41.802Z,18.70
2018-03-26T07:34:58.503Z,17.50
2018-03-26T07:45:18.708Z,18.97
2018-03-26T07:55:32.462Z,17.87
2018-03-26T08:05:50.292Z,18.17
2018-03-26T08:16:04.020Z,20.67
2018-03-26T08:26:16.704Z,16.20
2018-03-26T08:36:40.044Z,14.77
2018-03-26T08:46:52.079Z,13.97
2018-03-26T08:57:06.212Z,14.80
2018-03-26T09:07:20.255Z,15.07
2018-03-26T09:17:31.665Z,15.17
2018-03-26T09:27:48.259Z,14.33
2018-03-26T09:38:05.500Z,13.53
2018-03-26T09:48:16.942Z,12.67
2018-03-26T09:58:27.470Z,12.20
2018-03-26T10:08:37.340Z,13.00
2018-03-26T10:18:48.232Z,12.53
2018-03-26T10:29:05.250Z,12.07
2018-03-26T10:39:16.003Z,12.63
2018-03-26T10:49:38.931Z,11.67
2018-03-26T10:59:55.780Z,11.67
2018-03-26T11:10:09.624Z,11.30
2018-03-26T11:20:21.386Z,10.60
2018-03-26T11:30:36.254Z,10.50
2018-03-26T11:40:48.080Z,11.20
2018-03-26T11:51:12.890Z,10.03
2018-03-26T12:01:31.273Z,10.83
2018-03-26T12:11:43.115Z,9.97
2018-03-26T12:21:58.881Z,10.80
2018-03-26T12:32:11.409Z,11.17
2018-03-26T12:42:26.840Z,12.87
2018-03-26T12:53:04.344Z,10.23
2018-03-26T13:17:48.891Z,11.60
2018-03-26T13:28:00.726Z,10.97
2018-03-26T13:38:14.254Z,10.40
2018-03-26T13:48:29.488Z,10.70
2018-03-26T13:58:43.553Z,11.47
2018-03-26T14:09:14.387Z,10.50
2018-03-26T14:19:33.092Z,10.17
2018-03-26T14:29:45.759Z,11.03
2018-03-26T14:40:03.284Z,10.80
2018-03-26T14:50:27.419Z,10.37
2018-03-26T15:00:40.685Z,10.80
2018-03-26T15:10:52.005Z,10.03
2018-03-26T15:21:03.920Z,11.20
2018-03-26T15:31:23.082Z,9.73
2018-03-26T15:41:32.427Z,10.27
2018-03-26T15:51:43.157Z,10.27
2018-03-26T16:01:59.346Z,9.93
2018-03-26T16:12:07.873Z,10.30
2018-03-26T16:22:21.022Z,9.90
2018-03-26T16:32:32.015Z,10.57
2018-03-26T16:42:52.731Z,9.80
2018-03-26T16:53:04.832Z,13.00
2018-03-26T17:03:19.119Z,12.07
2018-03-26T17:13:36.123Z,12.63
2018-03-26T17:23:44.481Z,11.60
2018-03-26T17:33:53.042Z,9.80
2018-03-26T17:44:06.400Z,10.73
2018-03-26T17:54:15.846Z,11.67
2018-03-26T18:04:27.522Z,10.07
2018-03-26T18:14:37.451Z,10.50
2018-03-26T18:24:47.274Z,9.87
2018-03-26T18:34:56.864Z,10.47
2018-03-26T18:45:05.796Z,10.90
2018-03-26T18:55:22.708Z,10.17
2018-03-26T19:05:34.527Z,10.70
2018-03-26T19:15:47.400Z,10.57
2018-03-26T19:25:58.133Z,10.73
2018-03-26T19:36:07.532Z,11.00
2018-03-26T19:46:17.810Z,11.33
2018-03-26T19:56:30.576Z,12.93
2018-03-26T20:06:42.244Z,13.17
2018-03-26T20:16:50.513Z,10.30
2018-03-26T20:26:59.107Z,10.53
2018-03-26T20:37:12.236Z,10.70
2018-03-26T20:47:21.870Z,10.37
2018-03-26T20:57:33.951Z,11.10
2018-03-26T21:07:42.169Z,15.20
2018-03-26T21:17:51.971Z,12.97
2018-03-26T21:28:08.664Z,17.60
2018-03-26T21:38:18.266Z,15.37
2018-03-26T21:48:34.594Z,12.30
2018-03-26T21:58:50.513Z,12.73
2018-03-26T22:09:09.898Z,12.50
2018-03-26T22:19:23.492Z,12.40
2018-03-26T22:29:35.003Z,12.93
2018-03-26T22:39:47.643Z,12.30
2018-03-26T22:50:03.076Z,12.50
2018-03-26T23:00:13.835Z,12.20
2018-03-26T23:10:24.214Z,14.13
2018-03-26T23:20:40.890Z,12.03
2018-03-26T23:30:58.558Z,12.30
2018-03-26T23:41:21.351Z,12.53
2018-03-26T23:51:44.320Z,12.30
